createdAt,value
2018-01-21T00:01:36.159Z,27.20
2018-01-21T00:04:03.663Z,25.20
2018-01-21T00:06:31.221Z,26.95
2018-01-21T00:08:58.723Z,27.50
2018-01-21T00:11:27.039Z,27.70
2018-01-21T00:13:55.356Z,28.17
2018-01-21T00:16:22.991Z,28.90
2018-01-21T00:18:50.562Z,30.35
2018-01-21T00:21:18.099Z,30.65
2018-01-21T00:23:46.371Z,29.77
2018-01-21T00:26:13.944Z,28.17
2018-01-21T00:28:41.457Z,29.10
2018-01-21T00:31:08.984Z,27.00
2018-01-21T00:33:36.476Z,28.95
2018-01-21T00:36:03.977Z,28.17
2018-01-21T00:38:32.233Z,28.17
2018-01-21T00:40:59.727Z,28.90
2018-01-21T00:43:27.279Z,28.92
2018-01-21T00:45:54.883Z,31.08
2018-01-21T00:48:22.410Z,28.23
2018-01-21T00:50:49.949Z,28.77
2018-01-21T00:53:17.504Z,28.45
2018-01-21T00:55:46.143Z,29.67
2018-01-21T00:58:13.649Z,29.65
2018-01-21T01:00:41.178Z,30.27
2018-01-21T01:03:08.676Z,28.95
2018-01-21T01:05:36.179Z,31.23
2018-01-21T01:08:03.668Z,31.30
2018-01-21T01:10:31.946Z,30.60
2018-01-21T01:13:00.208Z,32.35
2018-01-21T01:15:27.728Z,30.12
2018-01-21T01:17:55.219Z,31.08
2018-01-21T01:20:22.802Z,31.15
2018-01-21T01:22:51.088Z,31.42
2018-01-21T01:25:19.388Z,32.45
2018-01-21T01:27:46.889Z,32.13
2018-01-21T01:30:14.394Z,30.00
2018-01-21T01:32:41.937Z,31.33
2018-01-21T01:35:10.216Z,31.58
2018-01-21T01:37:39.410Z,32.78
2018-01-21T01:40:07.664Z,32.28
2018-01-21T01:42:35.163Z,32.55
2018-01-21T01:45:03.080Z,31.67
2018-01-21T01:47:30.679Z,32.35
2018-01-21T01:49:58.950Z,31.33
2018-01-21T01:52:27.226Z,32.03
2018-01-21T01:54:55.487Z,31.23
2018-01-21T01:57:23.072Z,30.65
2018-01-21T01:59:51.324Z,31.60
2018-01-21T02:02:18.921Z,32.88
2018-01-21T02:04:46.409Z,33.22
2018-01-21T02:07:13.908Z,32.08
2018-01-21T02:09:42.183Z,32.55
2018-01-21T02:12:10.449Z,30.85
2018-01-21T02:14:38.046Z,32.00
2018-01-21T02:17:05.554Z,30.55
2018-01-21T02:19:33.054Z,31.67
2018-01-21T02:22:00.620Z,32.40
2018-01-21T02:24:28.173Z,33.45
2018-01-21T02:26:56.564Z,33.42
2018-01-21T02:29:24.106Z,33.75
2018-01-21T02:31:52.551Z,31.87
2018-01-21T02:34:20.068Z,31.58
2018-01-21T02:36:47.669Z,32.60
2018-01-21T02:39:15.287Z,32.15
2018-01-21T02:41:42.809Z,34.65
2018-01-21T02:44:11.069Z,35.03
2018-01-21T02:46:38.568Z,35.95
2018-01-21T02:49:06.123Z,34.65
2018-01-21T02:51:34.420Z,37.13
2018-01-21T02:54:01.951Z,37.83
2018-01-21T02:56:30.208Z,38.38
2018-01-21T02:58:57.795Z,39.08
2018-01-21T03:01:25.357Z,38.42
2018-01-21T03:03:52.875Z,38.97
2018-01-21T03:06:20.485Z,39.60
2018-01-21T03:08:47.991Z,38.13
2018-01-21T03:11:15.480Z,40.58
2018-01-21T03:13:43.735Z,39.58
2018-01-21T03:16:11.248Z,39.05
2018-01-21T03:18:38.733Z,39.45
2018-01-21T03:21:06.227Z,39.40
2018-01-21T03:23:34.516Z,37.20
2018-01-21T03:26:02.116Z,38.10
2018-01-21T03:28:29.742Z,37.95
2018-01-21T03:30:58.024Z,37.55
2018-01-21T03:33:25.578Z,36.45
2018-01-21T03:35:53.835Z,36.15
2018-01-21T03:38:22.091Z,35.60
2018-01-21T03:40:49.622Z,35.88
2018-01-21T03:43:17.153Z,35.83
2018-01-21T03:45:44.647Z,34.78
2018-01-21T03:48:12.170Z,34.78
2018-01-21T03:50:39.738Z,35.42
2018-01-21T03:53:07.256Z,34.83
2018-01-21T03:55:34.856Z,33.78
2018-01-21T03:58:02.362Z,31.67
2018-01-21T04:00:29.871Z,32.95
2018-01-21T04:02:57.422Z,32.97
2018-01-21T04:05:25.694Z,32.80
2018-01-21T04:07:53.976Z,32.78
2018-01-21T04:10:21.532Z,33.22
2018-01-21T04:12:49.799Z,33.08
2018-01-21T04:15:18.060Z,34.00
2018-01-21T04:17:45.642Z,33.17
2018-01-21T04:20:13.936Z,33.55
2018-01-21T04:22:41.437Z,34.03
2018-01-21T04:25:08.946Z,34.53
2018-01-21T04:27:36.463Z,33.92
2018-01-21T04:30:04.055Z,35.22
2018-01-21T04:32:32.325Z,32.97
2018-01-21T04:35:00.717Z,32.78
2018-01-21T04:37:28.975Z,33.47
2018-01-21T04:39:57.231Z,33.28
2018-01-21T04:42:24.819Z,34.08
2018-01-21T04:44:53.079Z,34.75
2018-01-21T04:47:20.661Z,34.90
2018-01-21T04:49:48.931Z,31.60
2018-01-21T04:52:17.204Z,34.45
2018-01-21T04:54:45.463Z,32.70
2018-01-21T04:57:12.957Z,35.67
2018-01-21T04:59:40.504Z,34.30
2018-01-21T05:02:08.774Z,35.42
2018-01-21T05:04:37.043Z,34.22
2018-01-21T05:07:04.536Z,34.63
2018-01-21T05:09:32.018Z,33.10
2018-01-21T05:11:59.528Z,34.40
2018-01-21T05:14:27.785Z,33.75
2018-01-21T05:16:56.795Z,34.08
2018-01-21T05:19:25.082Z,35.25
2018-01-21T05:21:54.060Z,34.35
2018-01-21T05:24:21.637Z,34.15
2018-01-21T05:26:49.899Z,34.80
2018-01-21T05:29:18.150Z,34.40
2018-01-21T05:31:45.660Z,34.47
2018-01-21T05:34:13.205Z,32.95
2018-01-21T05:36:40.722Z,34.50
2018-01-21T05:39:08.212Z,33.33
2018-01-21T05:41:36.483Z,33.97
2018-01-21T05:44:04.743Z,33.50
2018-01-21T05:46:32.243Z,35.10
2018-01-21T05:48:59.749Z,33.47
2018-01-21T05:51:27.248Z,35.17
2018-01-21T05:53:55.512Z,32.80
2018-01-21T05:56:23.787Z,33.47
2018-01-21T05:58:52.050Z,33.90
2018-01-21T06:01:19.635Z,33.50
2018-01-21T06:03:47.903Z,32.75
2018-01-21T06:06:16.171Z,32.22
2018-01-21T06:08:45.440Z,31.80
2018-01-21T06:11:12.939Z,32.03
2018-01-21T06:13:41.218Z,31.20
2018-01-21T06:16:09.493Z,30.25
2018-01-21T06:18:37.758Z,30.80
2018-01-21T06:21:05.264Z,30.45
2018-01-21T06:23:32.765Z,31.08
2018-01-21T06:26:00.258Z,29.27
2018-01-21T06:28:27.819Z,31.62
2018-01-21T06:30:55.356Z,30.02
2018-01-21T06:33:23.657Z,31.75
2018-01-21T06:35:51.208Z,30.70
2018-01-21T06:38:19.464Z,31.50
2018-01-21T06:40:48.497Z,30.10
2018-01-21T06:43:16.012Z,30.30
2018-01-21T06:45:43.591Z,29.98
2018-01-21T06:48:11.859Z,28.23
2018-01-21T06:50:40.135Z,29.02
2018-01-21T06:53:07.631Z,28.12
2018-01-21T06:55:35.141Z,27.15
2018-01-21T06:58:02.730Z,29.00
2018-01-21T07:00:31.007Z,28.30
2018-01-21T07:02:58.499Z,28.70
2018-01-21T07:05:25.995Z,28.83
2018-01-21T07:07:53.609Z,30.20
2018-01-21T07:10:21.143Z,29.85
2018-01-21T07:12:49.415Z,30.50
2018-01-21T07:15:17.791Z,29.00
2018-01-21T07:17:46.088Z,29.48
2018-01-21T07:20:14.298Z,28.45
2018-01-21T07:22:41.805Z,30.20
2018-01-21T07:25:10.188Z,29.50
2018-01-21T07:27:37.681Z,27.75
2018-01-21T07:30:05.206Z,31.20
2018-01-21T07:32:32.804Z,30.83
2018-01-21T07:35:00.323Z,31.10
2018-01-21T07:37:28.591Z,31.05
2018-01-21T07:39:56.876Z,29.67
2018-01-21T07:42:30.260Z,31.05
2018-01-21T07:44:58.523Z,31.08
2018-01-21T07:47:26.117Z,31.25
2018-01-21T07:49:53.631Z,31.00
2018-01-21T07:52:21.135Z,30.20
2018-01-21T07:54:48.687Z,31.58
2018-01-21T07:57:16.223Z,28.52
2018-01-21T07:59:43.757Z,29.73
2018-01-21T08:02:11.256Z,31.40
2018-01-21T08:04:38.817Z,31.58
2018-01-21T08:07:07.091Z,31.95
2018-01-21T08:09:35.400Z,29.23
2018-01-21T08:12:02.927Z,30.67
2018-01-21T08:14:30.505Z,30.33
2018-01-21T08:16:58.047Z,30.48
2018-01-21T08:19:26.316Z,31.77
2018-01-21T08:21:53.810Z,33.20
2018-01-21T08:24:21.308Z,31.33
2018-01-21T08:26:48.856Z,34.28
2018-01-21T08:29:16.390Z,33.03
2018-01-21T08:31:43.924Z,33.03
2018-01-21T08:34:17.904Z,32.78
2018-01-21T08:36:50.980Z,33.72
2018-01-21T08:39:24.263Z,34.00
2018-01-21T08:41:54.925Z,34.92
2018-01-21T08:44:22.449Z,33.85
2018-01-21T08:46:49.976Z,34.83
2018-01-21T08:49:17.498Z,33.38
2018-01-21T08:51:44.995Z,34.72
2018-01-21T08:54:12.517Z,33.88
2018-01-21T08:56:40.011Z,38.40
2018-01-21T08:59:07.516Z,36.50
2018-01-21T09:01:35.880Z,34.03
2018-01-21T09:04:03.403Z,35.63
2018-01-21T09:06:30.900Z,34.33
2018-01-21T09:08:58.394Z,33.97
2018-01-21T09:11:25.972Z,34.60
2018-01-21T09:13:54.228Z,34.28
2018-01-21T09:16:21.723Z,34.05
2018-01-21T09:18:49.250Z,34.97
2018-01-21T09:21:17.549Z,34.30
2018-01-21T09:23:45.103Z,33.88
2018-01-21T09:26:13.375Z,34.53
2018-01-21T09:28:40.896Z,33.50
2018-01-21T09:31:08.407Z,35.72
2018-01-21T09:33:35.971Z,32.58
2018-01-21T09:36:03.492Z,32.35
2018-01-21T09:38:31.076Z,33.58
2018-01-21T09:40:58.653Z,32.88
2018-01-21T09:43:26.178Z,31.87
2018-01-21T09:45:54.447Z,32.30
2018-01-21T09:48:22.035Z,30.98
2018-01-21T09:50:49.619Z,30.58
2018-01-21T09:53:17.220Z,30.98
2018-01-21T09:55:44.724Z,31.27
2018-01-21T09:58:12.255Z,31.35
2018-01-21T10:00:40.535Z,31.33
2018-01-21T10:03:08.951Z,33.67
2018-01-21T10:05:36.504Z,39.55
2018-01-21T10:08:04.098Z,36.35
2018-01-21T10:10:31.629Z,34.25
2018-01-21T10:12:59.162Z,34.75
2018-01-21T10:15:27.440Z,33.47
2018-01-21T10:17:55.732Z,31.58
2018-01-21T10:20:23.280Z,32.00
2018-01-21T10:22:50.778Z,30.40
2018-01-21T10:25:18.300Z,29.33
2018-01-21T10:27:45.789Z,30.85
2018-01-21T10:30:13.291Z,29.35
2018-01-21T10:32:41.591Z,29.20
2018-01-21T10:35:09.102Z,31.00
2018-01-21T10:37:36.607Z,31.27
2018-01-21T10:40:04.097Z,31.00
2018-01-21T10:42:31.599Z,28.52
2018-01-21T10:44:59.103Z,29.73
2018-01-21T10:47:26.706Z,29.42
2018-01-21T10:49:54.304Z,29.42
2018-01-21T10:52:21.816Z,30.35
2018-01-21T10:54:49.320Z,30.33
2018-01-21T10:57:16.840Z,31.62
2018-01-21T10:59:44.426Z,30.42
2018-01-21T11:02:12.719Z,30.65
2018-01-21T11:04:40.222Z,31.15
2018-01-21T11:07:07.717Z,29.17
2018-01-21T11:09:35.993Z,31.40
2018-01-21T11:12:04.263Z,32.30
2018-01-21T11:14:32.524Z,28.90
2018-01-21T11:17:00.085Z,28.50
2018-01-21T11:19:27.680Z,27.75
2018-01-21T11:21:55.198Z,29.00
2018-01-21T11:24:22.758Z,28.48
2018-01-21T11:26:50.256Z,29.40
2018-01-21T11:29:18.789Z,27.62
2018-01-21T11:31:46.426Z,29.55
2018-01-21T11:34:14.076Z,28.40
2018-01-21T11:36:41.725Z,26.10
2018-01-21T11:39:09.250Z,27.25
2018-01-21T11:41:36.763Z,28.15
2018-01-21T11:44:04.258Z,28.33
2018-01-21T11:46:31.860Z,29.95
2018-01-21T11:48:59.356Z,28.27
2018-01-21T11:51:26.871Z,30.67
2018-01-21T11:53:55.128Z,30.17
2018-01-21T11:56:22.642Z,29.27
2018-01-21T11:58:50.143Z,29.25
2018-01-21T12:01:17.655Z,29.12
2018-01-21T12:03:45.160Z,29.85
2018-01-21T12:06:12.743Z,28.98
2018-01-21T12:08:41.039Z,39.38
2018-01-21T12:11:08.589Z,28.92
2018-01-21T12:13:36.075Z,28.45
2018-01-21T12:16:03.590Z,28.80
2018-01-21T12:18:31.844Z,29.83
2018-01-21T12:20:59.434Z,26.65
2018-01-21T12:23:27.727Z,25.25
2018-01-21T12:25:55.856Z,25.83
2018-01-21T12:28:23.349Z,26.12
2018-01-21T12:30:50.867Z,26.62
2018-01-21T12:33:18.359Z,26.90
2018-01-21T12:35:46.644Z,27.87
2018-01-21T12:38:14.129Z,26.05
2018-01-21T12:40:41.629Z,25.20
2018-01-21T12:43:09.216Z,25.40
2018-01-21T12:45:38.384Z,26.27
2018-01-21T12:48:05.872Z,27.15
2018-01-21T12:50:33.440Z,26.02
2018-01-21T12:53:01.013Z,24.95
2018-01-21T12:55:28.515Z,25.50
2018-01-21T12:57:56.011Z,26.53
2018-01-21T13:00:23.524Z,25.60
2018-01-21T13:02:51.020Z,26.60
2018-01-21T13:05:19.307Z,26.25
2018-01-21T13:07:46.806Z,26.95
2018-01-21T13:10:14.324Z,25.45
2018-01-21T13:12:41.855Z,23.90
2018-01-21T13:15:09.338Z,26.12
2018-01-21T13:17:36.848Z,27.02
2018-01-21T13:20:04.368Z,27.47
2018-01-21T13:22:32.011Z,26.02
2018-01-21T13:24:59.653Z,25.42
2018-01-21T13:27:27.198Z,26.17
2018-01-21T13:29:54.799Z,25.25
2018-01-21T13:32:22.328Z,25.88
2018-01-21T13:34:51.362Z,26.17
2018-01-21T13:37:18.865Z,25.63
2018-01-21T13:39:46.483Z,25.05
2018-01-21T13:42:13.983Z,26.40
2018-01-21T13:44:41.475Z,24.02
2018-01-21T13:47:09.810Z,24.70
2018-01-21T13:49:37.273Z,25.75
2018-01-21T13:52:04.930Z,24.85
2018-01-21T13:54:32.439Z,25.37
2018-01-21T13:57:00.713Z,26.10
2018-01-21T13:59:29.034Z,26.45
2018-01-21T14:01:56.555Z,25.52
2018-01-21T14:04:24.061Z,23.70
2018-01-21T14:06:51.630Z,28.70
2018-01-21T14:09:19.268Z,25.20
2018-01-21T14:11:46.771Z,24.87
2018-01-21T14:14:15.046Z,24.67
2018-01-21T14:16:42.591Z,25.70
2018-01-21T14:19:10.083Z,26.45
2018-01-21T14:21:38.350Z,25.00
2018-01-21T14:24:06.608Z,25.40
2018-01-21T14:26:34.232Z,24.25
2018-01-21T14:29:01.795Z,24.23
2018-01-21T14:31:29.326Z,23.75
2018-01-21T14:33:56.820Z,23.25
2018-01-21T14:36:24.399Z,24.45
2018-01-21T14:38:51.906Z,26.45
2018-01-21T14:41:19.422Z,25.77
2018-01-21T14:43:47.739Z,24.83
2018-01-21T14:46:15.250Z,25.08
2018-01-21T14:48:42.738Z,26.05
2018-01-21T14:51:11.024Z,24.48
2018-01-21T14:53:39.388Z,24.70
2018-01-21T14:56:07.650Z,24.70
2018-01-21T14:58:35.151Z,24.10
2018-01-21T15:01:02.697Z,24.00
2018-01-21T15:03:31.154Z,22.80
2018-01-21T15:05:59.439Z,25.90
2018-01-21T15:08:27.724Z,24.10
2018-01-21T15:10:56.078Z,24.10
2018-01-21T15:13:23.601Z,24.12
2018-01-21T15:15:51.104Z,24.55
2018-01-21T15:18:18.594Z,24.08
2018-01-21T15:20:46.110Z,24.37
2018-01-21T15:23:13.609Z,25.48
2018-01-21T15:25:41.102Z,24.73
2018-01-21T15:28:08.592Z,22.52
2018-01-21T15:30:36.092Z,23.12
2018-01-21T15:33:03.614Z,23.92
2018-01-21T15:35:31.131Z,26.50
2018-01-21T15:37:58.675Z,25.15
2018-01-21T15:40:26.178Z,25.88
2018-01-21T15:42:53.683Z,25.27
2018-01-21T15:45:21.237Z,25.48
2018-01-21T15:47:48.712Z,24.87
2018-01-21T15:50:16.229Z,26.08
2018-01-21T15:52:44.532Z,26.10
2018-01-21T15:55:12.023Z,26.08
2018-01-21T15:57:39.575Z,27.77
2018-01-21T16:00:07.096Z,27.87
2018-01-21T16:02:35.439Z,25.65
2018-01-21T16:05:02.908Z,26.17
2018-01-21T16:07:31.180Z,27.52
2018-01-21T16:09:58.758Z,29.95
2018-01-21T16:12:26.221Z,27.15
2018-01-21T16:14:54.484Z,27.62
2018-01-21T16:17:22.018Z,27.10
2018-01-21T16:19:53.344Z,26.08
2018-01-21T16:22:20.868Z,26.45
2018-01-21T16:24:48.364Z,27.90
2018-01-21T16:27:15.948Z,26.35
2018-01-21T16:29:44.245Z,27.30
2018-01-21T16:32:11.748Z,25.73
2018-01-21T16:34:39.286Z,28.33
2018-01-21T16:37:06.945Z,27.85
2018-01-21T16:39:35.215Z,26.87
2018-01-21T16:42:03.492Z,26.20
2018-01-21T16:44:31.761Z,25.80
2018-01-21T16:47:00.044Z,26.08
2018-01-21T16:49:27.588Z,25.25
2018-01-21T16:51:55.789Z,25.00
2018-01-21T16:54:23.471Z,25.48
2018-01-21T16:56:51.011Z,27.17
2018-01-21T16:59:18.534Z,24.80
2018-01-21T17:01:46.054Z,23.20
2018-01-21T17:04:13.554Z,25.12
2018-01-21T17:06:41.839Z,25.67
2018-01-21T17:09:10.148Z,24.70
2018-01-21T17:11:38.042Z,25.55
2018-01-21T17:14:05.546Z,25.65
2018-01-21T17:16:33.864Z,24.73
2018-01-21T17:19:01.374Z,26.35
2018-01-21T17:21:29.670Z,25.77
2018-01-21T17:23:58.050Z,23.70
2018-01-21T17:26:26.326Z,23.92
2018-01-21T17:28:53.981Z,25.80
2018-01-21T17:31:21.518Z,26.10
2018-01-21T17:33:49.007Z,28.35
2018-01-21T17:36:17.323Z,28.20
2018-01-21T17:38:44.845Z,25.33
2018-01-21T17:41:12.368Z,27.75
2018-01-21T17:43:39.982Z,23.25
2018-01-21T17:46:07.508Z,25.62
2018-01-21T17:48:35.763Z,30.77
2018-01-21T17:51:03.297Z,34.88
2018-01-21T17:53:30.795Z,36.97
2018-01-21T17:55:59.164Z,35.28
2018-01-21T17:58:27.445Z,49.78
2018-01-21T18:00:55.712Z,58.72
2018-01-21T18:03:23.241Z,51.33
2018-01-21T18:05:50.969Z,67.82
2018-01-21T18:08:19.234Z,57.42
2018-01-21T18:10:47.512Z,38.38
2018-01-21T18:13:15.764Z,28.30
2018-01-21T18:15:43.270Z,36.38
2018-01-21T18:18:10.767Z,30.10
2018-01-21T18:20:38.284Z,29.75
2018-01-21T18:23:05.777Z,32.83
2018-01-21T18:25:33.627Z,31.73
2018-01-21T18:28:01.135Z,33.40
2018-01-21T18:30:29.520Z,32.63
2018-01-21T18:32:57.804Z,35.13
2018-01-21T18:35:26.091Z,32.80
2018-01-21T18:37:53.592Z,32.35
2018-01-21T18:40:21.161Z,29.65
2018-01-21T18:42:48.660Z,29.10
2018-01-21T18:45:16.995Z,30.50
2018-01-21T18:47:44.488Z,30.90
2018-01-21T18:50:12.785Z,29.45
2018-01-21T18:52:40.440Z,30.90
2018-01-21T18:55:08.002Z,31.58
2018-01-21T18:57:35.495Z,32.35
2018-01-21T19:00:02.994Z,31.00
2018-01-21T19:02:32.009Z,31.55
2018-01-21T19:05:00.648Z,29.67
2018-01-21T19:07:28.260Z,26.90
2018-01-21T19:09:56.519Z,32.20
2018-01-21T19:12:24.921Z,31.58
2018-01-21T19:14:52.522Z,29.02
2018-01-21T19:17:20.059Z,23.87
2018-01-21T19:19:47.583Z,27.70
2018-01-21T19:22:16.229Z,28.15
2018-01-21T19:24:43.739Z,29.42
2018-01-21T19:27:11.247Z,30.52
2018-01-21T19:29:38.763Z,26.37
2018-01-21T19:32:06.275Z,25.88
2018-01-21T19:34:33.804Z,27.60
2018-01-21T19:37:01.320Z,26.25
2018-01-21T19:39:38.709Z,25.25
2018-01-21T19:42:21.849Z,25.52
2018-01-21T19:44:49.438Z,26.98
2018-01-21T19:47:16.946Z,26.90
2018-01-21T19:49:45.322Z,26.62
2018-01-21T19:52:12.872Z,27.08
2018-01-21T19:54:40.395Z,26.73
2018-01-21T19:57:07.936Z,27.23
2018-01-21T19:59:35.457Z,26.80
2018-01-21T20:02:02.966Z,27.13
2018-01-21T20:04:30.513Z,26.10
2018-01-21T20:06:58.018Z,23.60
2018-01-21T20:09:25.548Z,23.67
2018-01-21T20:11:53.065Z,26.77
2018-01-21T20:14:21.356Z,23.50
2018-01-21T20:16:48.864Z,23.80
2018-01-21T20:19:16.351Z,23.75
2018-01-21T20:21:44.641Z,22.30
2018-01-21T20:24:12.900Z,23.85
2018-01-21T20:26:41.208Z,21.85
2018-01-21T20:29:08.765Z,21.85
2018-01-21T20:31:37.006Z,22.40
2018-01-21T20:34:04.519Z,22.98
2018-01-21T20:36:32.024Z,23.30
2018-01-21T20:39:00.334Z,24.70
2018-01-21T20:41:27.823Z,22.10
2018-01-21T20:43:55.315Z,26.02
2018-01-21T20:46:22.932Z,20.45
2018-01-21T20:48:50.419Z,17.10
2018-01-21T20:51:23.573Z,18.67
2018-01-21T20:53:56.833Z,19.00
2018-01-21T20:56:25.115Z,20.58
2018-01-21T20:58:53.383Z,22.67
2018-01-21T21:01:21.670Z,20.83
2018-01-21T21:03:49.932Z,12.52
2018-01-21T21:06:18.212Z,12.30
2018-01-21T21:08:46.474Z,14.05
2018-01-21T21:11:13.993Z,16.50
2018-01-21T21:13:41.507Z,16.55
2018-01-21T21:16:09.770Z,18.17
2018-01-21T21:18:37.267Z,18.08
2018-01-21T21:21:04.784Z,13.90
2018-01-21T21:23:33.071Z,14.48
2018-01-21T21:26:00.645Z,14.98
2018-01-21T21:28:28.954Z,15.65
2018-01-21T21:30:56.455Z,17.12
2018-01-21T21:33:23.957Z,17.85
2018-01-21T21:35:51.507Z,18.05
2018-01-21T21:38:19.753Z,19.85
2018-01-21T21:40:47.248Z,20.02
2018-01-21T21:43:14.825Z,20.85
2018-01-21T21:45:42.344Z,20.05
2018-01-21T21:48:10.633Z,19.75
2018-01-21T21:50:38.896Z,19.48
2018-01-21T21:53:06.387Z,17.62
2018-01-21T21:55:33.891Z,19.92
2018-01-21T21:58:01.488Z,18.35
2018-01-21T22:00:29.757Z,17.55
2018-01-21T22:02:58.051Z,18.55
2018-01-21T22:05:25.567Z,16.55
2018-01-21T22:07:53.989Z,18.15
2018-01-21T22:10:21.494Z,17.35
2018-01-21T22:12:48.980Z,17.17
2018-01-21T22:15:16.564Z,17.85
2018-01-21T22:17:44.050Z,17.60
2018-01-21T22:20:11.551Z,16.50
2018-01-21T22:22:39.033Z,16.80
2018-01-21T22:25:06.535Z,20.12
2018-01-21T22:27:34.090Z,19.62
2018-01-21T22:30:02.419Z,16.23
2018-01-21T22:32:30.712Z,16.95
2018-01-21T22:34:58.212Z,16.98
2018-01-21T22:37:25.717Z,18.62
2018-01-21T22:39:53.995Z,21.65
2018-01-21T22:42:22.272Z,18.73
2018-01-21T22:44:50.523Z,19.98
2018-01-21T22:47:18.824Z,20.12
2018-01-21T22:52:20.897Z,19.95
2018-01-21T22:54:49.184Z,19.98
2018-01-21T22:57:17.452Z,19.73
2018-01-21T22:59:45.701Z,19.08
2018-01-21T23:02:13.200Z,18.90
2018-01-21T23:04:41.456Z,18.52
2018-01-21T23:07:10.098Z,19.80
2018-01-21T23:09:37.587Z,20.27
2018-01-21T23:12:05.851Z,18.98
2018-01-21T23:14:33.339Z,20.15
2018-01-21T23:17:01.635Z,20.58
2018-01-21T23:19:29.123Z,19.23
2018-01-21T23:21:56.654Z,19.17
2018-01-21T23:24:24.142Z,19.08
2018-01-21T23:26:51.659Z,19.83
2018-01-21T23:29:19.927Z,19.80
2018-01-21T23:31:48.193Z,22.00
2018-01-21T23:34:15.726Z,19.08
2018-01-21T23:36:43.331Z,19.30
2018-01-21T23:39:10.819Z,21.98
2018-01-21T23:41:38.348Z,22.58
2018-01-21T23:44:06.601Z,20.25
2018-01-21T23:46:34.108Z,19.52
2018-01-21T23:49:01.594Z,21.35
2018-01-21T23:51:29.212Z,19.85
2018-01-21T23:53:56.694Z,20.67
2018-01-21T23:56:24.214Z,21.20
2018-01-21T23:58:52.486Z,20.95
